Time;durP1;ratioP1;P1;durP2;ratioP2;P2;SDS_P1;SDS_P2;PMS_P1;PMS_P2;Temp;Humidity;BMP_temperature;BMP_pressure;BME280_temperature;BME280_humidity;BME280_pressure;Samples;Min_cycle;Max_cycle;Signal;HPM_P1;HPM_P2
2022/05/17 00:01:57;;;;;;;2.00;1.60;;;15.30;39.70;;;;;;5017851;28;20052;-67
2022/05/17 00:04:23;;;;;;;2.08;1.92;;;15.30;39.60;;;;;;5017625;28;20092;-68
2022/05/17 00:06:49;;;;;;;1.73;1.63;;;15.20;39.80;;;;;;5017469;28;20048;-68
2022/05/17 00:09:16;;;;;;;2.13;1.85;;;15.20;39.80;;;;;;5016484;28;20030;-68
2022/05/17 00:11:44;;;;;;;2.05;1.80;;;15.10;39.80;;;;;;5017414;28;20390;-67
2022/05/17 00:14:11;;;;;;;2.50;1.75;;;15.10;39.90;;;;;;5016319;28;20034;-68
2022/05/17 00:16:36;;;;;;;2.45;1.80;;;15.00;39.80;;;;;;5017481;28;20037;-67
2022/05/17 00:19:03;;;;;;;1.70;1.55;;;15.10;39.90;;;;;;5017457;28;20396;-68
2022/05/17 00:21:28;;;;;;;2.42;1.80;;;15.10;39.90;;;;;;5017647;28;20030;-68
2022/05/17 00:23:54;;;;;;;1.80;1.70;;;15.00;39.80;;;;;;5017801;28;20049;-68
2022/05/17 00:26:21;;;;;;;1.80;1.70;;;15.00;39.80;;;;;;5017486;28;20441;-67
2022/05/17 00:28:47;;;;;;;2.78;1.63;;;15.00;39.90;;;;;;5017367;28;20461;-67
2022/05/17 00:31:12;;;;;;;2.50;1.70;;;14.90;39.90;;;;;;5017054;28;20025;-67
2022/05/17 00:33:38;;;;;;;1.67;1.58;;;14.90;40.00;;;;;;5016972;28;20052;-68
2022/05/17 00:36:05;;;;;;;1.92;1.70;;;14.80;40.00;;;;;;5016944;28;20101;-68
2022/05/17 00:38:31;;;;;;;3.13;1.80;;;14.80;40.00;;;;;;5016130;28;20104;-67
2022/05/17 00:40:56;;;;;;;1.88;1.73;;;14.70;40.10;;;;;;5016845;28;20074;-67
2022/05/17 00:46:25;;;;;;;1.80;1.70;;;14.70;40.10;;;;;;5017317;28;20048;-68
2022/05/17 00:48:51;;;;;;;1.95;1.70;;;14.60;40.10;;;;;;5016831;28;20085;-67
2022/05/17 00:51:17;;;;;;;1.92;1.70;;;14.60;40.20;;;;;;5016654;28;20057;-68
2022/05/17 00:53:43;;;;;;;2.38;1.70;;;14.50;40.20;;;;;;5016466;28;20061;-68
2022/05/17 00:56:18;;;;;;;2.17;1.95;;;14.50;40.20;;;;;;5016832;28;20066;-68
2022/05/17 00:58:50;;;;;;;2.75;1.80;;;14.40;40.20;;;;;;5015525;28;20026;-68
2022/05/17 01:01:19;;;;;;;2.05;1.85;;;14.40;40.20;;;;;;5016114;28;20070;-67
2022/05/17 01:04:07;;;;;;;2.20;2.10;;;14.40;40.20;;;;;;5016407;28;20033;-68
2022/05/17 01:06:37;;;;;;;2.08;1.80;;;14.40;40.30;;;;;;5016539;28;20091;-67
2022/05/17 01:09:03;;;;;;;1.60;1.50;;;14.40;40.30;;;;;;5015746;28;20112;-67
2022/05/17 01:11:29;;;;;;;1.80;1.60;;;14.40;40.20;;;;;;5016317;28;20463;-68
2022/05/17 01:16:40;;;;;;;1.73;1.60;;;14.40;40.30;;;;;;5015470;28;20111;-68
2022/05/17 01:19:08;;;;;;;1.60;1.50;;;14.30;40.20;;;;;;5016051;28;20488;-68
2022/05/17 01:21:35;;;;;;;2.00;1.58;;;14.30;40.20;;;;;;5016148;28;20062;-67
2022/05/17 01:24:00;;;;;;;1.85;1.60;;;14.30;40.30;;;;;;5016036;28;20139;-67
2022/05/17 01:26:29;;;;;;;1.50;1.40;;;14.30;40.30;;;;;;5016199;28;20107;-67
2022/05/17 01:28:55;;;;;;;2.22;1.50;;;14.30;40.30;;;;;;5015964;28;20030;-67
2022/05/17 01:31:21;;;;;;;1.77;1.67;;;14.30;40.30;;;;;;5014636;28;20025;-68
2022/05/17 01:33:47;;;;;;;1.55;1.45;;;14.30;40.30;;;;;;5015814;28;20388;-68
2022/05/17 01:36:15;;;;;;;1.60;1.50;;;14.30;40.40;;;;;;5016027;28;20040;-68
2022/05/17 01:38:45;;;;;;;1.65;1.55;;;14.30;40.50;;;;;;5015946;28;20025;-68
2022/05/17 01:41:11;;;;;;;2.42;1.40;;;14.20;40.50;;;;;;5015980;28;20026;-68
2022/05/17 01:43:37;;;;;;;1.70;1.60;;;14.20;40.50;;;;;;5015834;28;20109;-68
2022/05/17 01:46:08;;;;;;;1.98;1.55;;;14.20;40.60;;;;;;5016009;28;20388;-67
2022/05/17 01:48:35;;;;;;;1.75;1.65;;;14.20;40.70;;;;;;5015404;28;20038;-68
2022/05/17 01:51:01;;;;;;;2.03;1.73;;;14.10;40.70;;;;;;5016169;28;20093;-67
2022/05/17 01:53:27;;;;;;;1.75;1.60;;;14.10;40.80;;;;;;5015566;28;20033;-67
2022/05/17 01:55:52;;;;;;;1.80;1.70;;;14.00;40.80;;;;;;5015560;28;20362;-68
2022/05/17 01:58:18;;;;;;;2.88;1.73;;;14.00;41.00;;;;;;5014167;28;20059;-68
2022/05/17 02:00:45;;;;;;;1.70;1.52;;;14.00;41.10;;;;;;5015259;28;20457;-68
2022/05/17 02:03:10;;;;;;;1.85;1.63;;;14.00;41.10;;;;;;5015431;28;20388;-68
2022/05/17 02:05:36;;;;;;;1.63;1.52;;;13.90;41.20;;;;;;5015453;28;20034;-68
2022/05/17 02:08:02;;;;;;;1.63;1.38;;;14.00;41.20;;;;;;5015348;28;20026;-67
2022/05/17 02:10:28;;;;;;;1.60;1.50;;;14.00;41.20;;;;;;5014061;28;20114;-68
2022/05/17 02:12:56;;;;;;;1.60;1.50;;;13.90;41.10;;;;;;5014110;28;20412;-68
2022/05/17 02:15:23;;;;;;;2.05;1.52;;;13.90;41.20;;;;;;5015241;28;20030;-67
2022/05/17 02:17:49;;;;;;;1.52;1.42;;;13.90;41.30;;;;;;5013898;28;20030;-68
2022/05/17 02:20:15;;;;;;;3.50;1.60;;;13.80;41.30;;;;;;5015172;28;20022;-67
2022/05/17 02:22:41;;;;;;;2.40;1.40;;;13.80;41.40;;;;;;5013899;28;20026;-68
2022/05/17 02:25:08;;;;;;;1.77;1.60;;;13.80;41.50;;;;;;5015215;28;20046;-67
2022/05/17 02:27:34;;;;;;;1.20;1.20;;;13.80;41.50;;;;;;5015145;28;20022;-67
2022/05/17 02:30:00;;;;;;;1.50;1.40;;;13.80;41.50;;;;;;5013603;28;20029;-67
2022/05/17 02:32:26;;;;;;;1.42;1.33;;;13.80;41.50;;;;;;5014384;28;20105;-67
2022/05/17 02:34:52;;;;;;;1.52;1.42;;;13.80;41.60;;;;;;5014714;28;20116;-68
2022/05/17 02:37:18;;;;;;;1.83;1.38;;;13.80;41.50;;;;;;5014881;28;20030;-67
2022/05/17 02:39:47;;;;;;;3.22;1.55;;;13.80;41.70;;;;;;5014745;28;20362;-67
2022/05/17 02:42:13;;;;;;;3.03;1.83;;;13.80;41.70;;;;;;5014647;28;20026;-67
2022/05/17 02:44:39;;;;;;;1.70;1.60;;;13.70;41.80;;;;;;5014296;28;20030;-67
2022/05/17 02:47:06;;;;;;;2.20;1.83;;;13.60;42.00;;;;;;5014986;28;20034;-68
2022/05/17 02:49:31;;;;;;;1.70;1.60;;;13.50;42.00;;;;;;5013445;28;20037;-68
2022/05/17 02:52:03;;;;;;;1.95;1.58;;;13.50;42.30;;;;;;5014588;28;20022;-68
2022/05/17 02:54:29;;;;;;;3.72;1.63;;;13.40;42.30;;;;;;5014578;28;20022;-68
2022/05/17 02:56:55;;;;;;;1.50;1.40;;;13.40;42.60;;;;;;5013091;28;20033;-68
2022/05/17 02:59:22;;;;;;;2.13;1.75;;;13.40;42.60;;;;;;5014434;28;20462;-68
2022/05/17 03:01:47;;;;;;;1.60;1.50;;;13.30;42.70;;;;;;5012795;28;20033;-68
2022/05/17 03:04:13;;;;;;;1.60;1.50;;;13.20;42.60;;;;;;5014551;28;20036;-68
2022/05/17 03:06:40;;;;;;;1.77;1.67;;;13.30;43.40;;;;;;5013008;28;20037;-68
2022/05/17 03:09:08;;;;;;;1.70;1.60;;;13.20;42.90;;;;;;5014213;28;20029;-67
2022/05/17 03:11:34;;;;;;;1.70;1.60;;;13.20;43.10;;;;;;5014402;28;20022;-67
2022/05/17 03:13:59;;;;;;;1.83;1.73;;;13.20;43.10;;;;;;5013086;28;20045;-68
2022/05/17 03:16:30;;;;;;;2.90;1.80;;;13.10;43.20;;;;;;5014198;28;20037;-69
2022/05/17 03:18:57;;;;;;;1.80;1.70;;;13.10;43.50;;;;;;5014321;28;20026;-69
2022/05/17 03:21:22;;;;;;;2.83;1.90;;;13.10;43.40;;;;;;5014379;28;20121;-72
2022/05/17 03:23:48;;;;;;;4.82;2.20;;;13.00;43.80;;;;;;4996467;28;20077;-69
2022/05/17 03:26:13;;;;;;;3.10;1.92;;;12.90;43.60;;;;;;5012768;28;20468;-69
2022/05/17 03:28:39;;;;;;;3.95;1.77;;;12.90;43.70;;;;;;5014337;28;20030;-77
2022/05/17 03:31:09;;;;;;;2.20;2.00;;;13.00;43.90;;;;;;5012774;28;20499;-69
2022/05/17 03:33:35;;;;;;;2.30;2.03;;;13.00;43.80;;;;;;5013746;28;20033;-69
2022/05/17 03:36:00;;;;;;;3.08;1.90;;;12.90;43.70;;;;;;5014094;28;20025;-69
2022/05/17 03:38:26;;;;;;;3.08;2.30;;;13.00;43.90;;;;;;5014099;28;20085;-69
2022/05/17 03:40:54;;;;;;;2.30;2.10;;;12.90;44.20;;;;;;5013943;28;20030;-69
2022/05/17 03:43:20;;;;;;;4.95;2.20;;;12.90;44.20;;;;;;5012778;28;20037;-68
2022/05/17 03:45:47;;;;;;;19.10;15.27;;;12.90;44.20;;;;;;5014909;28;20467;-68
2022/05/17 03:48:13;;;;;;;23.75;19.55;;;12.90;44.70;;;;;;5013701;28;20403;-67
2022/05/17 03:50:39;;;;;;;14.65;11.13;;;12.90;44.70;;;;;;5012534;28;20449;-68
2022/05/17 03:53:05;;;;;;;10.13;7.40;;;12.90;44.70;;;;;;5013738;28;20032;-68
2022/05/17 03:55:31;;;;;;;6.25;5.15;;;13.00;44.80;;;;;;5013583;28;20037;-69
2022/05/17 03:57:57;;;;;;;5.50;4.25;;;12.90;44.70;;;;;;5014012;28;20030;-68
2022/05/17 04:00:23;;;;;;;7.13;3.83;;;13.00;44.90;;;;;;5013759;28;20029;-67
2022/05/17 04:02:49;;;;;;;3.58;3.05;;;13.00;44.90;;;;;;5013728;28;20354;-68
2022/05/17 04:05:16;;;;;;;4.03;2.90;;;13.10;45.10;;;;;;5013408;28;20389;-67
2022/05/17 04:07:42;;;;;;;6.43;2.40;;;13.00;44.90;;;;;;5012565;28;20091;-70
2022/05/17 04:10:10;;;;;;;3.08;2.33;;;13.10;45.30;;;;;;5013583;28;20022;-68
2022/05/17 04:12:37;;;;;;;2.85;2.60;;;13.10;45.10;;;;;;5011802;28;20084;-69
2022/05/17 04:15:05;;;;;;;4.15;2.35;;;13.20;45.50;;;;;;5012693;28;20033;-68
2022/05/17 04:17:30;;;;;;;2.40;2.05;;;13.10;45.40;;;;;;5012534;28;20048;-68
2022/05/17 04:19:59;;;;;;;2.53;2.00;;;13.20;45.40;;;;;;5013437;28;20025;-68
2022/05/17 04:22:24;;;;;;;3.45;2.15;;;13.30;45.50;;;;;;5013384;28;20030;-68
2022/05/17 04:24:53;;;;;;;2.65;2.00;;;13.30;45.60;;;;;;5013357;28;20400;-68
2022/05/17 04:27:19;;;;;;;2.45;2.03;;;13.30;45.60;;;;;;5013604;28;20029;-66
2022/05/17 04:29:45;;;;;;;11.23;8.65;;;13.40;45.70;;;;;;5013532;28;20528;-66
2022/05/17 04:32:10;;;;;;;25.40;21.70;;;13.40;45.70;;;;;;5013277;28;20026;-67
2022/05/17 04:34:36;;;;;;;8.55;7.30;;;13.50;45.70;;;;;;5020993;28;20048;-69
2022/05/17 04:37:02;;;;;;;7.75;5.07;;;13.50;46.10;;;;;;5033041;28;20040;-68
2022/05/17 04:39:28;;;;;;;4.75;3.85;;;13.60;46.60;;;;;;5026115;28;20034;-69
2022/05/17 04:41:53;;;;;;;4.90;3.08;;;13.80;47.00;;;;;;5013368;28;20034;-69
2022/05/17 04:44:19;;;;;;;3.45;2.55;;;13.90;47.10;;;;;;5017025;28;20034;-68
2022/05/17 04:46:45;;;;;;;13.82;10.43;;;14.10;46.90;;;;;;5037167;28;20124;-67
2022/05/17 04:49:10;;;;;;;17.88;12.98;;;14.20;46.60;;;;;;5033926;28;20037;-68
2022/05/17 04:51:36;;;;;;;12.00;7.93;;;14.40;46.20;;;;;;5017904;28;20022;-81
2022/05/17 04:54:02;;;;;;;6.53;4.75;;;14.60;46.10;;;;;;5024754;28;20025;-83
2022/05/17 04:56:28;;;;;;;4.63;3.67;;;14.60;45.70;;;;;;5016819;28;20496;-86
2022/05/17 04:58:54;;;;;;;3.58;3.05;;;14.80;45.30;;;;;;5022578;28;20053;-81
2022/05/17 05:01:21;;;;;;;9.98;3.13;;;14.90;45.00;;;;;;5017056;28;20432;-70
2022/05/17 05:03:47;;;;;;;5.63;2.70;;;15.00;44.90;;;;;;5016850;28;20121;-68
2022/05/17 05:06:13;;;;;;;3.22;2.53;;;15.20;44.80;;;;;;5034445;28;20120;-72
2022/05/17 05:08:38;;;;;;;9.30;7.43;;;15.40;44.40;;;;;;5034467;28;20033;-68
2022/05/17 05:11:05;;;;;;;15.13;12.02;;;15.60;44.00;;;;;;5020789;28;20025;-68
2022/05/17 05:13:31;;;;;;;9.70;7.07;;;15.70;43.60;;;;;;5020247;28;20021;-68
2022/05/17 05:15:57;;;;;;;6.22;4.30;;;15.80;43.30;;;;;;5034823;28;20506;-67
2022/05/17 05:18:23;;;;;;;4.53;3.35;;;15.80;42.70;;;;;;5033597;28;20078;-68
2022/05/17 05:20:49;;;;;;;4.03;2.65;;;15.80;42.70;;;;;;5029201;28;20032;-68
2022/05/17 05:23:15;;;;;;;4.00;2.08;;;15.90;42.40;;;;;;5035523;28;20025;-68
2022/05/17 05:25:41;;;;;;;15.60;11.40;;;15.90;42.50;;;;;;5021346;28;20468;-68
2022/05/17 05:28:09;;;;;;;11.63;10.18;;;15.80;42.20;;;;;;5017680;28;20030;-67
2022/05/17 05:30:36;;;;;;;11.90;8.48;;;15.90;42.00;;;;;;5027561;28;20036;-69
2022/05/17 05:33:01;;;;;;;6.15;4.70;;;16.00;42.10;;;;;;5021636;28;20037;-68
2022/05/17 05:35:27;;;;;;;4.43;3.13;;;16.00;41.70;;;;;;5015887;28;20022;-69
2022/05/17 05:37:54;;;;;;;3.40;2.75;;;16.00;42.10;;;;;;5014671;28;20384;-68
2022/05/17 05:40:21;;;;;;;3.30;2.30;;;16.10;41.40;;;;;;5015912;28;20042;-68
2022/05/17 05:42:50;;;;;;;2.83;1.90;;;16.10;41.30;;;;;;5015734;28;20465;-67
2022/05/17 05:45:17;;;;;;;2.17;1.67;;;16.10;41.10;;;;;;5023716;28;20066;-67
2022/05/17 05:47:43;;;;;;;12.63;9.98;;;16.20;41.00;;;;;;5035535;28;20060;-66
2022/05/17 05:50:09;;;;;;;5.60;4.50;;;16.20;41.00;;;;;;5032736;28;20025;-67
2022/05/17 05:52:35;;;;;;;4.13;3.20;;;16.20;41.50;;;;;;5024943;28;20527;-70
2022/05/17 05:55:01;;;;;;;3.35;2.78;;;16.30;40.90;;;;;;5015099;28;20464;-67
2022/05/17 05:57:28;;;;;;;2.85;2.55;;;16.40;41.90;;;;;;5016199;28;20030;-68
2022/05/17 05:59:54;;;;;;;3.67;2.10;;;16.60;42.40;;;;;;5025721;28;20034;-68
2022/05/17 06:02:20;;;;;;;3.50;2.10;;;17.00;42.60;;;;;;5027504;28;20029;-68
2022/05/17 06:04:45;;;;;;;2.58;1.88;;;17.40;42.70;;;;;;5027447;28;20447;-68
2022/05/17 06:07:11;;;;;;;2.63;1.90;;;17.70;42.60;;;;;;5024869;28;20394;-69
2022/05/17 06:09:37;;;;;;;1.92;1.67;;;18.00;42.40;;;;;;5018302;28;20029;-68
2022/05/17 06:12:03;;;;;;;2.13;1.60;;;18.30;42.30;;;;;;5020471;28;20032;-69
2022/05/17 06:14:29;;;;;;;1.85;1.63;;;18.60;42.20;;;;;;5023908;28;20022;-67
2022/05/17 06:16:55;;;;;;;2.17;1.92;;;18.90;42.10;;;;;;5023823;28;20391;-68
2022/05/17 06:19:25;;;;;;;1.40;1.30;;;19.10;42.00;;;;;;5021690;28;20033;-67
2022/05/17 06:21:51;;;;;;;1.67;1.58;;;19.30;41.90;;;;;;5017363;28;20062;-68
2022/05/17 06:24:17;;;;;;;1.50;1.40;;;19.50;41.80;;;;;;5013858;28;20054;-67
2022/05/17 06:26:43;;;;;;;1.45;1.35;;;19.70;41.80;;;;;;5011741;28;20038;-68
2022/05/17 06:29:09;;;;;;;1.50;1.40;;;19.80;41.60;;;;;;5014418;28;20029;-66
2022/05/17 06:31:34;;;;;;;1.67;1.30;;;20.00;41.50;;;;;;5014723;28;20026;-68
2022/05/17 06:34:00;;;;;;;3.55;1.30;;;20.10;41.50;;;;;;5014472;28;20157;-67
2022/05/17 06:36:26;;;;;;;1.33;1.23;;;20.30;41.50;;;;;;5014987;28;20045;-68
2022/05/17 06:38:52;;;;;;;1.60;1.40;;;20.40;41.40;;;;;;5022898;28;20022;-68
2022/05/17 06:41:17;;;;;;;1.35;1.17;;;20.60;41.40;;;;;;5021958;28;20395;-68
2022/05/17 06:43:43;;;;;;;1.20;1.10;;;20.60;41.30;;;;;;5023953;28;20026;-68
2022/05/17 06:46:08;;;;;;;2.00;1.10;;;20.80;41.30;;;;;;5021149;28;20037;-68
2022/05/17 06:48:34;;;;;;;2.58;1.10;;;20.90;41.30;;;;;;5023519;28;20661;-68
2022/05/17 06:51:05;;;;;;;1.15;1.05;;;20.90;41.20;;;;;;5022078;28;20064;-68
2022/05/17 06:53:31;;;;;;;1.63;1.10;;;21.00;41.20;;;;;;5022655;28;20100;-68
2022/05/17 06:55:58;;;;;;;1.10;1.00;;;21.20;41.20;;;;;;5022370;28;20120;-69
2022/05/17 06:58:24;;;;;;;1.63;1.15;;;21.20;41.10;;;;;;5020471;28;20044;-67
2022/05/17 07:00:50;;;;;;;2.35;1.08;;;21.30;40.70;;;;;;5023047;28;20444;-68
2022/05/17 07:03:16;;;;;;;1.60;1.20;;;21.30;40.50;;;;;;5021471;28;20122;-68
2022/05/17 07:05:41;;;;;;;2.90;1.13;;;21.40;40.40;;;;;;5024206;28;20133;-68
2022/05/17 07:08:07;;;;;;;1.10;1.00;;;21.40;40.20;;;;;;5022694;28;20018;-68
2022/05/17 07:13:18;;;;;;;1.65;1.10;;;21.40;39.50;;;;;;5021060;28;20033;-68
2022/05/17 07:15:49;;;;;;;1.42;1.10;;;21.30;39.60;;;;;;5021912;28;20030;-68
2022/05/17 07:18:20;;;;;;;1.77;1.10;;;21.40;39.30;;;;;;5021642;28;20013;-69
2022/05/17 07:20:47;;;;;;;1.02;1.00;;;21.40;38.90;;;;;;5016679;28;20841;-68
2022/05/17 07:23:13;;;;;;;0.70;0.70;;;21.30;38.70;;;;;;5020593;28;20053;-69
2022/05/17 07:25:44;;;;;;;1.02;0.90;;;21.30;38.70;;;;;;5020375;28;20053;-67
2022/05/17 07:28:17;;;;;;;0.80;0.80;;;21.30;38.80;;;;;;5020392;28;20053;-65
2022/05/17 07:30:43;;;;;;;1.15;1.05;;;21.30;38.60;;;;;;5015880;28;20018;-68
2022/05/17 07:33:09;;;;;;;1.95;1.20;;;21.30;38.60;;;;;;5020767;28;20022;-67
2022/05/17 07:35:35;;;;;;;1.13;1.00;;;21.30;38.50;;;;;;5022479;28;20101;-67
2022/05/17 07:38:02;;;;;;;0.90;0.77;;;21.40;38.60;;;;;;5020829;28;20101;-67
2022/05/17 07:40:30;;;;;;;0.85;0.85;;;21.30;38.40;;;;;;5021261;28;20038;-66
2022/05/17 07:42:56;;;;;;;1.20;1.00;;;21.40;37.90;;;;;;5021885;28;20037;-67
2022/05/17 07:45:21;;;;;;;0.90;0.85;;;21.40;37.90;;;;;;5031748;28;20044;-70
2022/05/17 07:47:47;;;;;;;0.88;0.88;;;21.50;38.10;;;;;;5032998;28;20048;-68
2022/05/17 07:50:13;;;;;;;1.77;1.02;;;21.50;37.90;;;;;;5033063;28;20037;-70
2022/05/17 07:52:40;;;;;;;0.88;0.88;;;21.50;37.60;;;;;;5023485;28;20026;-68
2022/05/17 07:55:06;;;;;;;0.70;0.70;;;21.60;37.80;;;;;;5014149;28;20038;-67
2022/05/17 07:57:32;;;;;;;0.85;0.80;;;21.70;37.60;;;;;;5013052;28;20030;-68
2022/05/17 07:59:58;;;;;;;1.40;0.90;;;21.80;37.60;;;;;;5013279;28;20029;-73
2022/05/17 08:02:23;;;;;;;2.17;0.98;;;21.90;37.40;;;;;;5016386;28;20468;-69
2022/05/17 08:04:49;;;;;;;4.85;0.80;;;22.00;37.40;;;;;;5029523;28;20396;-71
2022/05/17 08:07:15;;;;;;;0.70;0.70;;;22.00;36.90;;;;;;5018391;28;20049;-69
2022/05/17 08:09:41;;;;;;;0.80;0.70;;;22.00;36.10;;;;;;5033159;28;20502;-69
2022/05/17 08:12:09;;;;;;;0.63;0.63;;;21.90;36.30;;;;;;5032121;28;20022;-68
2022/05/17 08:14:36;;;;;;;2.78;0.80;;;21.90;36.30;;;;;;5032038;28;20025;-68
2022/05/17 08:17:03;;;;;;;0.93;0.80;;;21.80;36.20;;;;;;5032395;28;20052;-68
2022/05/17 08:19:29;;;;;;;1.15;0.80;;;21.80;36.20;;;;;;5035423;28;20033;-68
2022/05/17 08:21:55;;;;;;;0.90;0.82;;;21.70;36.20;;;;;;5036088;28;20452;-69
2022/05/17 08:24:20;;;;;;;0.52;0.52;;;21.70;36.30;;;;;;5035910;28;20045;-68
2022/05/17 08:29:50;;;;;;;1.35;0.63;;;21.70;36.40;;;;;;5054482;28;20064;-67
2022/05/17 08:35:00;;;;;;;1.00;0.80;;;21.90;36.50;;;;;;5044259;28;20056;-68
2022/05/17 08:37:26;;;;;;;1.10;1.00;;;22.00;37.10;;;;;;5036813;28;20163;-68
2022/05/17 08:39:52;;;;;;;1.95;0.70;;;22.00;36.40;;;;;;5035660;28;20491;-67
2022/05/17 08:42:28;;;;;;;1.42;0.70;;;22.10;36.30;;;;;;5036879;28;20049;-69
2022/05/17 08:45:00;;;;;;;3.50;0.85;;;22.10;36.00;;;;;;5036310;28;20055;-69
2022/05/17 08:47:43;;;;;;;2.50;0.75;;;22.10;36.00;;;;;;5035668;28;20108;-68
2022/05/17 08:50:11;;;;;;;1.08;0.90;;;22.10;35.70;;;;;;5035080;28;20036;-68
2022/05/17 08:52:39;;;;;;;1.17;0.82;;;22.00;35.70;;;;;;5036504;28;20387;-70
2022/05/17 08:55:27;;;;;;;1.05;0.82;;;22.00;35.70;;;;;;5034967;28;20037;-68
2022/05/17 08:58:19;;;;;;;2.10;0.77;;;22.00;35.50;;;;;;5035219;28;20029;-68
2022/05/17 09:00:56;;;;;;;0.50;0.50;;;22.00;35.40;;;;;;5036682;28;20083;-68
2022/05/17 09:03:35;;;;;;;0.80;0.80;;;22.00;35.60;;;;;;5036534;28;20033;-67
2022/05/17 09:06:11;;;;;;;1.95;0.80;;;22.20;35.50;;;;;;5035977;28;20032;-68
2022/05/17 09:09:14;;;;;;;0.70;0.70;;;22.20;35.10;;;;;;5036415;28;20030;-68
2022/05/17 09:12:02;;;;;;;1.00;0.70;;;22.10;34.70;;;;;;5036058;28;20038;-68
2022/05/17 09:14:33;;;;;;;0.98;0.80;;;22.10;34.80;;;;;;5035742;28;20030;-68
2022/05/17 09:17:00;;;;;;;1.00;0.63;;;22.10;35.30;;;;;;5036061;28;20033;-68
2022/05/17 09:19:27;;;;;;;0.95;0.82;;;22.00;35.30;;;;;;5035994;28;20052;-68
2022/05/17 09:21:58;;;;;;;0.90;0.80;;;22.00;35.30;;;;;;5034852;28;20056;-68
2022/05/17 09:24:29;;;;;;;0.80;0.77;;;22.00;35.20;;;;;;5034467;28;20130;-68
2022/05/17 09:27:07;;;;;;;1.05;0.68;;;22.00;35.20;;;;;;5035644;28;20057;-69
2022/05/17 09:29:43;;;;;;;0.75;0.73;;;22.10;34.90;;;;;;5034270;28;20116;-68
2022/05/17 09:32:11;;;;;;;0.65;0.60;;;22.10;34.90;;;;;;5034640;28;20372;-68
2022/05/17 09:34:40;;;;;;;1.10;1.00;;;22.20;34.80;;;;;;5034563;28;20112;-69
2022/05/17 09:37:19;;;;;;;0.80;0.70;;;22.20;34.40;;;;;;5034593;28;20068;-68
2022/05/17 09:39:48;;;;;;;0.50;0.50;;;22.20;34.60;;;;;;5034792;28;20025;-69
2022/05/17 09:42:27;;;;;;;0.75;0.73;;;22.20;34.60;;;;;;5034448;28;20072;-69
2022/05/17 09:44:56;;;;;;;0.70;0.70;;;22.20;34.20;;;;;;5034099;28;20029;-68
2022/05/17 09:47:33;;;;;;;1.90;1.00;;;22.20;34.50;;;;;;5034083;28;20037;-69
2022/05/17 09:53:07;;;;;;;0.88;0.80;;;22.20;34.30;;;;;;5035716;28;20075;-68
2022/05/17 09:55:34;;;;;;;0.70;0.60;;;22.20;34.40;;;;;;5035477;28;20035;-68
2022/05/17 09:58:06;;;;;;;2.88;1.00;;;22.30;34.50;;;;;;5035561;28;20034;-67
2022/05/17 10:00:44;;;;;;;0.80;0.65;;;22.30;34.30;;;;;;5035278;28;20030;-68
2022/05/17 10:03:12;;;;;;;0.82;0.63;;;22.30;34.40;;;;;;5035451;28;20033;-69
2022/05/17 10:05:40;;;;;;;0.70;0.70;;;22.30;34.40;;;;;;5035194;28;20063;-68
2022/05/17 10:08:29;;;;;;;2.25;0.90;;;22.40;34.40;;;;;;5034967;28;20047;-68
2022/05/17 10:11:13;;;;;;;0.80;0.80;;;22.40;33.80;;;;;;5018286;28;20064;-68
2022/05/17 10:13:59;;;;;;;0.90;0.80;;;22.40;33.60;;;;;;5035222;28;20021;-68
2022/05/17 10:16:52;;;;;;;0.85;0.73;;;22.50;33.90;;;;;;5034041;28;20033;-68
2022/05/17 10:19:31;;;;;;;1.30;0.70;;;22.50;33.30;;;;;;5034224;28;20426;-69
2022/05/17 10:21:59;;;;;;;0.88;0.60;;;22.50;32.60;;;;;;5034979;28;20104;-68
2022/05/17 10:24:40;;;;;;;2.03;0.90;;;22.40;34.10;;;;;;5034738;28;20507;-68
2022/05/17 10:27:34;;;;;;;0.60;0.60;;;22.40;33.30;;;;;;5033309;28;20500;-68
2022/05/17 10:30:11;;;;;;;1.00;0.70;;;22.40;33.20;;;;;;5034809;28;20494;-68
2022/05/17 10:33:04;;;;;;;0.75;0.60;;;22.40;33.30;;;;;;5034844;28;20067;-68
2022/05/17 10:35:54;;;;;;;0.68;0.68;;;22.50;33.40;;;;;;5034530;28;20032;-68
2022/05/17 10:38:25;;;;;;;0.73;0.73;;;22.50;33.80;;;;;;5034713;28;20079;-68
2022/05/17 10:40:53;;;;;;;2.85;0.70;;;22.60;33.40;;;;;;5034504;28;20112;-69
2022/05/17 10:43:39;;;;;;;0.50;0.50;;;22.60;33.40;;;;;;5032701;28;20459;-67
2022/05/17 10:46:05;;;;;;;1.05;0.80;;;22.70;33.40;;;;;;5034813;28;20029;-68
2022/05/17 10:48:50;;;;;;;1.85;0.60;;;22.70;33.50;;;;;;5034417;28;20040;-68
2022/05/17 10:51:32;;;;;;;0.70;0.55;;;22.70;33.40;;;;;;5034404;28;20048;-68
2022/05/17 10:54:13;;;;;;;0.70;0.70;;;22.70;33.10;;;;;;5032734;28;20028;-69
2022/05/17 10:56:45;;;;;;;1.20;0.70;;;22.70;33.20;;;;;;5034428;28;20036;-68
2022/05/17 10:59:40;;;;;;;1.23;0.60;;;22.70;33.30;;;;;;5033159;28;20069;-68
2022/05/17 11:02:05;;;;;;;0.70;0.70;;;22.80;33.10;;;;;;5032699;28;20037;-69
2022/05/17 11:04:58;;;;;;;1.75;0.70;;;22.80;33.10;;;;;;5034181;28;20029;-68
2022/05/17 11:07:50;;;;;;;1.15;0.63;;;22.80;33.00;;;;;;5030978;28;20033;-69
2022/05/17 11:10:33;;;;;;;0.80;0.65;;;22.90;32.50;;;;;;5033620;28;20099;-68
2022/05/17 11:13:33;;;;;;;1.70;0.75;;;23.00;32.90;;;;;;5033695;28;20017;-69
2022/05/17 11:16:12;;;;;;;0.60;0.60;;;23.00;31.80;;;;;;5032186;28;20041;-69
2022/05/17 11:19:10;;;;;;;0.70;0.70;;;23.00;32.10;;;;;;5033935;28;20052;-69
2022/05/17 11:21:43;;;;;;;1.40;0.60;;;23.00;32.40;;;;;;5032081;28;20545;-67
2022/05/17 11:24:08;;;;;;;0.80;0.70;;;23.00;32.50;;;;;;5033757;28;20088;-67
2022/05/17 11:26:40;;;;;;;0.75;0.70;;;23.00;32.80;;;;;;5033945;28;20084;-68
2022/05/17 11:29:17;;;;;;;1.45;0.60;;;23.10;32.70;;;;;;5034269;28;20038;-68
2022/05/17 11:32:24;;;;;;;0.68;0.65;;;23.10;32.60;;;;;;5033532;28;20021;-67
2022/05/17 11:34:53;;;;;;;0.60;0.60;;;23.10;31.50;;;;;;5034089;28;20021;-68
2022/05/17 11:37:34;;;;;;;0.60;0.60;;;23.10;32.70;;;;;;5032271;28;20025;-68
2022/05/17 11:40:07;;;;;;;1.60;0.75;;;23.20;31.40;;;;;;5034008;28;20029;-68
2022/05/17 11:42:35;;;;;;;1.00;0.90;;;23.20;32.60;;;;;;5033063;28;20026;-68
2022/05/17 11:45:23;;;;;;;0.90;0.80;;;23.20;32.20;;;;;;5033457;28;20045;-68
2022/05/17 11:47:55;;;;;;;0.70;0.70;;;23.20;31.70;;;;;;5033364;28;20476;-68
2022/05/17 11:50:28;;;;;;;0.85;0.65;;;23.10;31.90;;;;;;5032283;28;20056;-68
2022/05/17 11:53:23;;;;;;;1.10;0.60;;;23.10;31.90;;;;;;5032880;28;20036;-67
2022/05/17 11:56:19;;;;;;;0.70;0.70;;;23.10;31.20;;;;;;5039113;28;20041;-69
2022/05/17 11:58:50;;;;;;;0.70;0.70;;;23.10;31.30;;;;;;5037662;28;20434;-69
2022/05/17 12:01:31;;;;;;;1.15;0.70;;;23.10;31.90;;;;;;5036583;28;20482;-69
2022/05/17 12:04:21;;;;;;;0.60;0.60;;;23.10;31.70;;;;;;5037566;28;20017;-67
2022/05/17 12:06:55;;;;;;;0.80;0.60;;;23.20;31.50;;;;;;5037427;28;20475;-68
2022/05/17 12:09:24;;;;;;;;;;;23.30;32.00;;;;;;5036170;28;20078;-68
2022/05/17 12:12:20;;;;;;;1.20;0.73;;;23.30;31.60;;;;;;5037474;28;19916;-69
2022/05/17 12:15:01;;;;;;;0.55;0.55;;;23.40;31.90;;;;;;5036010;28;20055;-68
2022/05/17 12:17:34;;;;;;;0.80;0.80;;;23.50;32.10;;;;;;5037073;28;20025;-68
2022/05/17 12:20:21;;;;;;;2.45;0.57;;;23.60;31.90;;;;;;5037493;28;20033;-68
2022/05/17 12:23:01;;;;;;;0.60;0.60;;;23.60;31.90;;;;;;5036041;28;20160;-68
2022/05/17 12:25:37;;;;;;;0.95;0.50;;;23.60;31.80;;;;;;5036817;28;20053;-68
2022/05/17 12:28:08;;;;;;;0.98;0.80;;;23.80;31.90;;;;;;5036801;28;20029;-68
2022/05/17 12:33:25;;;;;;;0.90;0.70;;;23.90;31.80;;;;;;5036768;28;20140;-68
2022/05/17 12:35:52;;;;;;;0.63;0.63;;;23.90;31.70;;;;;;5036833;28;20029;-69
2022/05/17 12:44:20;;;;;;;0.82;0.60;;;24.00;31.40;;;;;;5036722;28;20043;-69
2022/05/17 12:46:49;;;;;;;0.82;0.52;;;24.00;31.20;;;;;;5036119;28;20034;-68
2022/05/17 12:49:22;;;;;;;0.60;0.60;;;24.10;31.40;;;;;;5036628;28;20095;-69
2022/05/17 12:51:58;;;;;;;0.80;0.80;;;24.20;31.40;;;;;;5036299;28;20036;-68
2022/05/17 12:54:30;;;;;;;0.75;0.60;;;24.40;31.30;;;;;;5036666;28;20022;-68
2022/05/17 12:56:58;;;;;;;1.05;0.75;;;24.40;31.20;;;;;;5036434;28;20033;-68
2022/05/17 12:59:31;;;;;;;0.52;0.50;;;24.50;31.30;;;;;;5036371;28;20025;-68
2022/05/17 13:02:00;;;;;;;0.82;0.68;;;24.50;30.20;;;;;;5036953;28;20067;-68
2022/05/17 13:04:34;;;;;;;1.63;0.70;;;24.60;30.90;;;;;;5035321;28;20034;-68
2022/05/17 13:07:21;;;;;;;1.00;0.73;;;24.70;30.90;;;;;;5034676;28;20037;-68
2022/05/17 13:10:00;;;;;;;0.77;0.68;;;24.90;30.50;;;;;;5036163;28;20523;-68
2022/05/17 13:12:29;;;;;;;0.45;0.45;;;25.00;30.50;;;;;;5034876;28;20026;-67
2022/05/17 13:14:55;;;;;;;0.50;0.50;;;25.00;30.60;;;;;;5035995;28;20037;-68
2022/05/17 13:17:33;;;;;;;0.63;0.60;;;25.00;30.40;;;;;;5034783;28;20057;-68
2022/05/17 13:20:19;;;;;;;1.95;0.70;;;25.00;30.50;;;;;;5035360;28;20104;-68
2022/05/17 13:22:46;;;;;;;0.77;0.52;;;25.10;30.40;;;;;;5035457;28;20022;-69
2022/05/17 13:25:20;;;;;;;0.50;0.50;;;25.20;30.60;;;;;;5035124;28;20045;-68
2022/05/17 13:27:50;;;;;;;;;;;25.20;30.00;;;;;;5035777;28;20478;-68